Nearby METAR Reports

 

KHIF - Hill Afb/Ogden, Utah, USA
Distance from station: ENE 6mi, 9km
Updated: Fri, 23-Feb-2018 5:05am MST
Blowing snow, Mist, Overcast
Blowing snow, Mist, Overcast
 Wind from ENE
Wind: ENE 8 mph , 13 km/h
Temperature: 23°F , -5°C
Wind Chill: 14°F , -10°C
Dew Point: 19°F , -7°C
Humidity: 86%
Barometer: 29.90 inHg , 1012.5 hPa
Summary: Blowing snow, Mist
Clouds: Overcast
Visibility: 5 miles , 8 km
Cloud details: Mostly cloudy 1000 ft
Mostly cloudy 2500 ft
Overcast 3100 ft
2018/02/23 12:05 KHIF 231205Z AUTO 06007KT 5SM BLSN BR BKN010 BKN025 OVC031 M05/M07 A2990 RMK AO2 SLP146
KOGD - Ogden, Utah, USA
Distance from station: NNE 9mi, 14km
Updated: Fri, 23-Feb-2018 5:01am MST
Light snow, Mist, Overcast
Light snow, Mist, Overcast
 Wind from calm
Wind: Calm
Temperature: 27°F , -3°C
Dew Point: 23°F , -5°C
Humidity: 86%
Barometer: 29.91 inHg , 1012.9 hPa
Summary: Light snow, Mist
Clouds: Overcast
Visibility: 1 1/4 miles , 2 km
Cloud details: Partly cloudy 900 ft
Overcast 1700 ft
2018/02/23 12:01 KOGD 231201Z AUTO 00000KT 1 1/4SM -SN BR SCT009 OVC017 M03/M05 A2991 RMK AO2 P0000 T10331050
 
KSLC - Salt Lake City, Utah, USA
Distance from station: SSE 21mi, 34km
Updated: Fri, 23-Feb-2018 4:54am MST
Overcast
Overcast
 Wind from NW
Wind: NW 3 mph , 6 km/h
Temperature: 28°F , -2°C
Dew Point: 23°F , -5°C
Humidity: 80%
Barometer: 29.91 inHg , 1012.9 hPa
Clouds: Overcast
Visibility: 9 miles , 14 km
Cloud details: Mostly cloudy 5500 ft
Overcast 7500 ft
2018/02/23 11:54 KSLC 231154Z 32003KT 9SM BKN055 OVC075 M02/M05 A2991 RMK AO2 SNB15E54 SLP137 4/003 P0000 60000 I6000 T10171050 11006 21044 56004
KLGU - Logan, Utah, USA
Distance from station: NNE 50mi, 80km
Updated: Fri, 23-Feb-2018 4:59am MST
Light snow, Overcast
Light snow, Overcast
 Wind from calm
Wind: Calm
Temperature: 21°F , -6°C
Dew Point: 16°F , -9°C
Humidity: 80%
Barometer: 29.96 inHg , 1014.6 hPa
Summary: Light Snow
Clouds: Overcast
Visibility: 2 miles , 3 km
Cloud details: Overcast 3800 ft
2018/02/23 11:59 KLGU 231159Z AUTO 00000KT 2SM -SN OVC038 M06/M09 A2996 RMK AO2 P0000 T10611094
 
K36U - Heber/Russ Mcdon, Utah, USA
Distance from station: SE 53mi, 85km
Updated: Wed, 11-Oct-2017 6:50pm MDT
NOT Current
Clear
Clear
 Wind from SSW
Wind: SSW 10 mph , 17 km/h, Gust: 18 mph , 30 km/h
Temperature: 63°F , 17°C
Dew Point: 16°F , -9°C
Humidity: 16%
Barometer: 29.87 inHg , 1011.5 hPa
Clouds: Clear
Visibility: 10 miles , 16 km
2017/10/12 00:50 K36U 120050Z AUTO 21009G16KT 10SM CLR 17/M09 A2987 RMK AO2
KEVW - Evanston, Wyoming, USA
Distance from station: ENE 55mi, 89km
Updated: Fri, 23-Feb-2018 4:53am MST
Overcast
Overcast
 Wind from E
Wind: E 14 mph , 22 km/h
Temperature: 7°F , -14°C
Wind Chill: -10°F , -23°C
Dew Point: 1°F , -17°C
Humidity: 78%
Barometer: 29.85 inHg , 1010.8 hPa
Clouds: Overcast
Visibility: 10 miles , 16 km
Cloud details: Overcast 4200 ft
2018/02/23 11:53 KEVW 231153Z AUTO 10012KT 10SM OVC042 M14/M17 A2985 RMK AO2 SLP176 60000 T11441167 11122 21150 55003
 
KPVU - Provo Muni, Utah, USA
Distance from station: SSE 62mi, 100km
Updated: Fri, 23-Feb-2018 4:56am MST
Overcast
Overcast
 Wind from calm
Wind: Calm
Temperature: 28°F , -2°C
Dew Point: 19°F , -7°C
Humidity: 69%
Barometer: 29.90 inHg , 1012.5 hPa
Clouds: Overcast
Visibility: 10 miles , 16 km
Cloud details: Overcast 8000 ft
2018/02/23 11:56 KPVU 231156Z AUTO 00000KT 10SM OVC080 M02/M07 A2990 RMK AO2 SLP143 T10171072 11017 21044 56010
KDPG - Dugway Prvg Grou, Utah, USA
Distance from station: SW 75mi, 121km
Updated: Thu, 22-Feb-2018 3:58pm MST
NOT Current
Overcast
Overcast
 Wind from SE
Wind: SE 7 mph , 11 km/h
Temperature: 30°F , -1°C
Wind Chill: 23°F , -5°C
Dew Point: 19°F , -7°C
Humidity: 64%
Barometer: 29.94 inHg , 1013.9 hPa
Clouds: Overcast
Visibility: 30 miles , 48 km
Cloud details: Mostly cloudy 5500 ft
Overcast 7500 ft
2018/02/22 22:58 KDPG 222258Z 14006KT 30SM BKN055 OVC075 M01/M07 A2994 RMK SLP167 SH DSNT W-NW AND NE VIRGA ALQDS T10141070
 
KENV - Wendover (aut), Utah, USA
Distance from station: WSW 105mi, 169km
Updated: Fri, 23-Feb-2018 4:56am MST
Overcast
Overcast
 Wind from W
Wind: W 12 mph , 19 km/h
Temperature: 21°F , -6°C
Wind Chill: 9°F , -13°C
Dew Point: 14°F , -10°C
Humidity: 74%
Barometer: 29.98 inHg , 1015.2 hPa
Clouds: Overcast
Visibility: 10 miles , 16 km
Cloud details: Overcast 3700 ft
2018/02/23 11:56 KENV 231156Z AUTO 28010KT 10SM OVC037 M06/M10 A2998 RMK AO2 SLP189 60000 70003 T10561100 11039 21078 53006 FZRANO
KPUC - Price, Utah, USA
Distance from station: SE 123mi, 197km
Updated: Fri, 23-Feb-2018 5:07am MST
Mostly cloudy
Mostly cloudy
 Wind from E
Wind: E 6 mph , 9 km/h
Temperature: 23°F , -5°C
Wind Chill: 16°F , -9°C
Dew Point: 21°F , -6°C
Humidity: 93%
Barometer: 29.87 inHg , 1011.5 hPa
Clouds: Mostly cloudy
Visibility: 10 miles , 16 km
Cloud details: Partly cloudy 1000 ft
Mostly cloudy 1400 ft
Mostly cloudy 2900 ft
2018/02/23 12:07 KPUC 231207Z AUTO 09005KT 10SM SCT010 BKN014 BKN029 M05/M06 A2987 RMK AO2 SNE1159 P0000 T10501056
 
KPIH - Pocatello, Idaho, USA
Distance from station: NNW 130mi, 208km
Updated: Fri, 23-Feb-2018 4:53am MST
Clear
Clear
 Wind from SSW
Wind: SSW 6 mph , 9 km/h
Temperature: 10°F , -12°C
Wind Chill: 0°F , -18°C
Dew Point: 7°F , -14°C
Humidity: 85%
Barometer: 30.04 inHg , 1017.3 hPa
Clouds: Clear
Visibility: 10 miles , 16 km
2018/02/23 11:53 KPIH 231153Z AUTO 20005KT 10SM CLR M12/M14 A3004 RMK AO2 SLP214 70002 T11171139 11056 21128 53005
KBYI - Burley, Idaho, USA
Distance from station: NW 134mi, 216km
Updated: Fri, 23-Feb-2018 4:53am MST
Clear
Clear
 Wind from SW
Wind: SW 8 mph , 13 km/h
Temperature: 7°F , -14°C
Wind Chill: -6°F , -21°C
Dew Point: 1°F , -17°C
Humidity: 78%
Barometer: 30.05 inHg , 1017.6 hPa
Clouds: Clear
Visibility: 10 miles , 16 km
2018/02/23 11:53 KBYI 231153Z AUTO 23007KT 10SM CLR M14/M17 A3005 RMK AO2 SLP222 T11391167 11094 21139 53007
 
KVEL - Vernal, Utah, USA
Distance from station: ESE 140mi, 226km
Updated: Fri, 23-Feb-2018 4:53am MST
Light snow, Mist, Overcast
Light snow, Mist, Overcast
 Wind from NW
Wind: NW 6 mph , 9 km/h
Temperature: 21°F , -6°C
Wind Chill: 13°F , -11°C
Dew Point: 19°F , -7°C
Humidity: 93%
Barometer: 29.95 inHg , 1014.2 hPa
Summary: Light snow, Mist
Clouds: Overcast
Visibility: 2 miles , 3 km
Cloud details: Overcast 2400 ft
2018/02/23 11:53 KVEL 231153Z AUTO 31005KT 2SM -SN BR OVC024 M06/M07 A2995 RMK AO2 SNB1055 SLP175 P0001 60009 70009 T10561072 11056 21067 56008
KBPI - Big Piney, Wyoming, USA
Distance from station: NE 145mi, 234km
Updated: Fri, 23-Feb-2018 4:53am MST
Light snow, Overcast
Light snow, Overcast
 Wind from calm
Wind: Calm
Temperature: 1°F , -17°C
Dew Point: -4°F , -20°C
Humidity: 78%
Barometer: 29.92 inHg , 1013.2 hPa
Summary: Light Snow
Clouds: Overcast
Visibility: 4 miles , 6 km
Cloud details: Mostly cloudy 3200 ft
Overcast 10000 ft
2018/02/23 11:53 KBPI 231153Z AUTO 00000KT 4SM -SN BKN032 OVC100 M17/M20 A2992 RMK AO2 SNB35 SLP199 P0000 60000 T11721200 11133 21183 53001